createdAt,value
2019-03-13T00:00:54.031Z,6.27
2019-03-13T00:03:24.032Z,4.93
2019-03-13T00:05:53.847Z,5.07
2019-03-13T00:08:24.163Z,7.03
2019-03-13T00:10:54.247Z,5.83
2019-03-13T00:13:24.547Z,6.67
2019-03-13T00:15:54.458Z,6.10
2019-03-13T00:18:24.264Z,6.50
2019-03-13T00:20:54.123Z,6.97
2019-03-13T00:23:23.922Z,6.43
2019-03-13T00:25:53.600Z,6.83
2019-03-13T00:28:23.321Z,8.20
2019-03-13T00:30:53.136Z,9.03
2019-03-13T00:33:23.155Z,7.77
2019-03-13T00:35:52.881Z,7.57
2019-03-13T00:38:22.683Z,6.00
2019-03-13T00:40:52.682Z,7.53
2019-03-13T00:43:22.542Z,5.97
2019-03-13T00:45:52.531Z,7.00
2019-03-13T00:48:22.370Z,11.63
2019-03-13T00:50:52.321Z,7.60
2019-03-13T00:53:22.065Z,7.73
2019-03-13T00:55:51.896Z,9.70
2019-03-13T00:58:21.767Z,7.97
2019-03-13T01:01:16.712Z,9.23
2019-03-13T01:03:57.012Z,8.33
2019-03-13T01:06:29.671Z,8.13
2019-03-13T01:08:59.467Z,8.37
2019-03-13T01:11:30.241Z,8.83
2019-03-13T01:14:00.020Z,7.13
2019-03-13T01:16:30.020Z,7.77
2019-03-13T01:18:59.902Z,6.70
2019-03-13T01:21:29.767Z,5.93
2019-03-13T01:23:59.662Z,7.63
2019-03-13T01:26:29.459Z,5.80
2019-03-13T01:28:59.195Z,6.47
2019-03-13T01:32:06.375Z,5.53
2019-03-13T01:34:45.841Z,6.40
2019-03-13T01:37:15.955Z,6.13
2019-03-13T01:39:45.877Z,6.57
2019-03-13T01:42:15.791Z,5.83
2019-03-13T01:44:45.650Z,6.40
2019-03-13T01:47:15.527Z,7.17
2019-03-13T01:49:45.399Z,8.77
2019-03-13T01:52:15.218Z,7.90
2019-03-13T01:54:44.950Z,7.40
2019-03-13T01:57:14.991Z,7.63
2019-03-13T01:59:44.731Z,7.93
2019-03-13T02:02:14.621Z,8.30
2019-03-13T02:04:44.334Z,8.20
2019-03-13T02:07:14.300Z,8.73
2019-03-13T02:09:44.048Z,8.50
2019-03-13T02:12:16.117Z,8.97
2019-03-13T02:14:46.088Z,7.93
2019-03-13T02:17:15.864Z,9.60
2019-03-13T02:19:45.765Z,10.80
2019-03-13T02:22:15.636Z,10.37
2019-03-13T02:24:45.486Z,10.27
2019-03-13T02:27:15.428Z,10.27
2019-03-13T02:29:45.281Z,10.73
2019-03-13T02:32:15.057Z,12.57
2019-03-13T02:34:44.762Z,11.40
2019-03-13T02:37:14.744Z,10.73
2019-03-13T02:39:44.603Z,15.03
2019-03-13T02:42:14.340Z,12.03
2019-03-13T02:44:44.298Z,11.80
2019-03-13T02:47:18.381Z,12.17
2019-03-13T02:49:45.518Z,11.10
2019-03-13T02:52:15.464Z,16.50
2019-03-13T02:54:45.137Z,13.27
2019-03-13T02:57:14.862Z,13.23
2019-03-13T02:59:44.732Z,16.00
2019-03-13T03:02:23.065Z,16.87
2019-03-13T03:04:53.060Z,15.83
2019-03-13T03:07:22.723Z,14.53
2019-03-13T03:09:52.526Z,16.60
2019-03-13T03:12:22.392Z,17.97
2019-03-13T03:15:10.069Z,16.10
2019-03-13T03:17:39.935Z,16.27
2019-03-13T03:20:12.762Z,15.70
2019-03-13T03:22:42.483Z,13.93
2019-03-13T03:25:12.906Z,14.97
2019-03-13T03:27:42.939Z,15.27
2019-03-13T03:30:19.516Z,15.47
2019-03-13T03:32:49.386Z,15.03
2019-03-13T03:35:19.223Z,12.40
2019-03-13T03:37:49.152Z,16.53
2019-03-13T03:40:22.478Z,15.10
2019-03-13T03:42:50.736Z,15.80
2019-03-13T03:45:21.018Z,16.80
2019-03-13T03:47:50.924Z,18.50
2019-03-13T03:50:20.671Z,15.30
2019-03-13T03:52:50.293Z,17.57
2019-03-13T03:55:20.291Z,16.87
2019-03-13T03:57:49.915Z,15.43
2019-03-13T04:00:19.928Z,20.23
2019-03-13T04:02:49.821Z,22.50
2019-03-13T04:05:20.154Z,20.53
2019-03-13T04:07:49.794Z,21.73
2019-03-13T04:10:19.616Z,19.07
2019-03-13T04:12:49.648Z,21.30
2019-03-13T04:15:19.444Z,20.27
2019-03-13T04:17:49.387Z,24.47
2019-03-13T04:20:20.641Z,21.53
2019-03-13T04:22:50.386Z,18.33
2019-03-13T04:25:35.219Z,20.93
2019-03-13T04:28:05.801Z,23.07
2019-03-13T04:30:35.839Z,20.60
2019-03-13T04:33:05.651Z,22.50
2019-03-13T04:35:35.645Z,20.57
2019-03-13T04:38:05.377Z,17.83
2019-03-13T04:40:35.101Z,18.07
2019-03-13T04:43:05.026Z,17.50
2019-03-13T04:45:34.846Z,19.67
2019-03-13T04:48:05.017Z,20.03
2019-03-13T04:50:34.676Z,17.80
2019-03-13T04:53:04.595Z,19.63
2019-03-13T04:55:34.316Z,18.63
2019-03-13T04:58:04.118Z,20.23
2019-03-13T05:00:33.970Z,17.93
2019-03-13T05:03:03.753Z,21.83
2019-03-13T05:05:54.049Z,21.20
2019-03-13T05:08:45.355Z,20.00
2019-03-13T05:11:13.900Z,20.37
2019-03-13T05:13:43.748Z,21.03
2019-03-13T05:16:13.557Z,20.37
2019-03-13T05:18:43.534Z,22.80
2019-03-13T05:21:13.387Z,19.23
2019-03-13T05:23:43.333Z,19.93
2019-03-13T05:26:14.483Z,21.47
2019-03-13T05:28:44.371Z,18.50
2019-03-13T05:31:14.348Z,17.97
2019-03-13T05:33:44.106Z,17.93
2019-03-13T05:36:16.744Z,17.93
2019-03-13T05:38:45.776Z,18.67
2019-03-13T05:41:15.588Z,16.20
2019-03-13T05:43:45.301Z,16.13
2019-03-13T05:46:15.107Z,16.53
2019-03-13T05:48:44.760Z,16.47
2019-03-13T05:51:14.557Z,18.73
2019-03-13T05:53:44.445Z,19.27
2019-03-13T05:56:14.215Z,21.93
2019-03-13T05:58:44.101Z,14.20
2019-03-13T06:01:14.165Z,17.50
2019-03-13T06:03:43.947Z,20.10
2019-03-13T06:06:13.985Z,18.33
2019-03-13T06:08:43.731Z,18.03
2019-03-13T06:11:13.481Z,20.70
2019-03-13T06:13:43.305Z,18.37
2019-03-13T06:16:13.173Z,19.87
2019-03-13T06:18:42.980Z,19.83
2019-03-13T06:21:12.960Z,16.33
2019-03-13T06:23:42.851Z,18.20
2019-03-13T06:26:12.617Z,19.50
2019-03-13T06:28:42.490Z,19.23
2019-03-13T06:31:12.569Z,17.73
2019-03-13T06:33:42.386Z,20.23
2019-03-13T06:36:12.332Z,17.90
2019-03-13T06:38:42.260Z,21.57
2019-03-13T06:41:12.046Z,15.93
2019-03-13T06:43:41.891Z,17.00
2019-03-13T06:46:11.616Z,21.27
2019-03-13T06:48:41.365Z,19.97
2019-03-13T06:51:11.145Z,19.90
2019-03-13T06:53:41.086Z,25.40
2019-03-13T06:56:10.943Z,20.63
2019-03-13T06:58:55.779Z,20.53
2019-03-13T07:01:32.648Z,23.27
2019-03-13T07:04:30.720Z,22.97
2019-03-13T07:07:25.252Z,21.60
2019-03-13T07:10:03.625Z,21.77
2019-03-13T07:13:03.902Z,19.63
2019-03-13T07:15:58.680Z,22.30
2019-03-13T07:18:45.869Z,20.97
2019-03-13T07:21:43.696Z,18.83
2019-03-13T07:24:35.171Z,24.00
2019-03-13T07:27:22.665Z,21.90
2019-03-13T07:30:09.802Z,23.67
2019-03-13T07:33:01.620Z,21.57
2019-03-13T07:35:49.086Z,21.83
2019-03-13T07:38:40.881Z,23.90
2019-03-13T07:41:30.888Z,21.63
2019-03-13T07:44:21.026Z,18.50
2019-03-13T07:47:24.735Z,19.17
2019-03-13T07:50:09.345Z,25.10
2019-03-13T07:53:13.406Z,18.77
2019-03-13T07:55:50.641Z,20.00
2019-03-13T07:58:48.285Z,22.47
2019-03-13T08:01:43.905Z,22.23
2019-03-13T08:04:24.826Z,20.40
2019-03-13T08:07:12.126Z,17.50
2019-03-13T08:10:03.652Z,21.37
2019-03-13T08:13:04.498Z,18.60
2019-03-13T08:15:54.014Z,18.63
2019-03-13T08:18:41.399Z,21.57
2019-03-13T08:21:38.952Z,17.90
2019-03-13T08:24:29.043Z,27.57
2019-03-13T08:27:16.841Z,19.87
2019-03-13T08:29:57.235Z,19.30
2019-03-13T08:32:45.313Z,19.50
2019-03-13T08:35:30.472Z,21.40
2019-03-13T08:38:19.159Z,19.10
2019-03-13T08:41:01.845Z,20.77
2019-03-13T08:43:51.707Z,25.67
2019-03-13T08:46:32.426Z,19.93
2019-03-13T08:49:18.558Z,22.33
2019-03-13T08:51:58.285Z,18.40
2019-03-13T08:54:41.557Z,22.43
2019-03-13T08:57:24.014Z,19.17
2019-03-13T09:00:22.114Z,22.40
2019-03-13T09:03:01.183Z,20.83
2019-03-13T09:05:52.722Z,17.47
2019-03-13T09:08:56.501Z,25.17
2019-03-13T09:11:48.515Z,79.50
2019-03-13T09:14:29.686Z,17.90
2019-03-13T09:17:18.442Z,14.97
2019-03-13T09:20:13.327Z,22.63
2019-03-13T09:22:49.260Z,18.17
2019-03-13T09:25:38.022Z,24.80
2019-03-13T09:28:45.936Z,20.53
2019-03-13T09:31:25.646Z,20.13
2019-03-13T09:34:17.619Z,26.20
2019-03-13T09:36:57.489Z,20.67
2019-03-13T09:39:35.534Z,19.17
2019-03-13T09:42:14.290Z,22.80
2019-03-13T09:45:03.043Z,18.73
2019-03-13T09:47:57.946Z,24.13
2019-03-13T09:50:36.146Z,27.60
2019-03-13T09:53:13.384Z,19.57
2019-03-13T09:55:52.343Z,24.30
2019-03-13T09:58:44.118Z,19.73
2019-03-13T10:01:25.999Z,20.97
2019-03-13T10:04:20.477Z,25.30
2019-03-13T10:07:12.617Z,21.97
2019-03-13T10:10:10.674Z,23.20
2019-03-13T10:13:02.439Z,17.17
2019-03-13T10:15:51.286Z,19.13
2019-03-13T10:18:40.008Z,21.67
2019-03-13T10:21:31.628Z,18.50
2019-03-13T10:24:26.413Z,19.73
2019-03-13T10:27:24.477Z,15.17
2019-03-13T10:30:08.189Z,18.20
2019-03-13T10:32:47.423Z,15.07
2019-03-13T10:35:39.061Z,16.20
2019-03-13T10:38:37.051Z,18.27
2019-03-13T10:41:28.608Z,25.47
2019-03-13T10:44:09.002Z,23.23
2019-03-13T10:47:12.741Z,20.90
2019-03-13T10:49:51.218Z,25.97
2019-03-13T10:52:39.760Z,17.97
2019-03-13T10:55:38.199Z,17.87
2019-03-13T10:58:26.674Z,19.40
2019-03-13T11:01:18.388Z,18.77
2019-03-13T11:04:07.769Z,19.73
2019-03-13T11:06:54.887Z,17.47
2019-03-13T11:09:34.433Z,17.80
2019-03-13T11:12:32.084Z,19.00
2019-03-13T11:15:20.773Z,18.80
2019-03-13T11:18:00.046Z,14.93
2019-03-13T11:20:48.737Z,18.53
2019-03-13T11:23:37.566Z,14.90
2019-03-13T11:26:32.504Z,17.67
2019-03-13T11:29:21.236Z,22.70
2019-03-13T11:32:28.185Z,17.30
2019-03-13T11:35:15.661Z,12.47
2019-03-13T11:38:07.174Z,16.30
2019-03-13T11:40:58.770Z,12.20
2019-03-13T11:44:05.821Z,17.73
2019-03-13T11:46:44.443Z,14.50
2019-03-13T11:49:31.650Z,15.97
2019-03-13T11:52:23.436Z,15.60
2019-03-13T11:55:12.098Z,14.37
2019-03-13T11:58:00.728Z,17.53
2019-03-13T12:00:46.674Z,18.93
2019-03-13T12:03:35.278Z,13.37
2019-03-13T12:06:29.945Z,14.13
2019-03-13T12:09:09.309Z,15.93
2019-03-13T12:12:02.567Z,14.57
2019-03-13T12:14:57.123Z,19.13
2019-03-13T12:17:40.552Z,21.37
2019-03-13T12:20:32.408Z,14.77
2019-03-13T12:23:37.771Z,16.23
2019-03-13T12:26:43.280Z,13.73
2019-03-13T12:29:30.372Z,16.77
2019-03-13T12:32:08.705Z,17.17
2019-03-13T12:34:57.230Z,14.90
2019-03-13T12:37:52.200Z,12.33
2019-03-13T12:40:39.690Z,14.07
2019-03-13T12:43:29.624Z,15.07
2019-03-13T12:46:30.681Z,15.53
2019-03-13T12:49:08.066Z,13.60
2019-03-13T12:51:59.601Z,11.77
2019-03-13T12:54:51.416Z,15.93
2019-03-13T12:57:58.601Z,14.17
2019-03-13T13:00:36.079Z,16.70
2019-03-13T13:03:25.049Z,13.30
2019-03-13T13:06:19.461Z,16.40
2019-03-13T13:09:07.160Z,17.27
2019-03-13T13:11:45.728Z,16.60
2019-03-13T13:14:52.267Z,11.40
2019-03-13T13:17:34.311Z,14.83
2019-03-13T13:20:05.658Z,15.67
2019-03-13T13:22:35.472Z,16.70
2019-03-13T13:25:06.387Z,15.60
2019-03-13T13:27:36.176Z,12.27
2019-03-13T13:30:06.720Z,14.23
2019-03-13T13:32:37.849Z,12.93
2019-03-13T13:35:09.176Z,12.07
2019-03-13T13:37:39.090Z,15.47
2019-03-13T13:40:10.606Z,13.63
2019-03-13T13:42:40.410Z,16.00
2019-03-13T13:45:33.009Z,14.07
2019-03-13T13:48:03.015Z,11.97
2019-03-13T13:50:32.934Z,14.90
2019-03-13T13:53:02.938Z,12.87
2019-03-13T13:55:32.855Z,11.97
2019-03-13T13:58:02.761Z,10.17
2019-03-13T14:00:32.782Z,13.47
2019-03-13T14:03:02.906Z,13.07
2019-03-13T14:06:06.349Z,17.90
2019-03-13T14:09:05.047Z,12.33
2019-03-13T14:12:16.082Z,12.07
2019-03-13T14:14:58.550Z,14.13
2019-03-13T14:17:35.675Z,13.70
2019-03-13T14:20:44.685Z,16.63
2019-03-13T14:23:42.615Z,13.20
2019-03-13T14:26:50.466Z,13.87
2019-03-13T14:34:02.181Z,12.70
2019-03-13T14:36:29.913Z,11.83
2019-03-13T14:39:22.692Z,13.50
2019-03-13T14:45:49.186Z,10.73
2019-03-13T14:49:08.179Z,10.80
2019-03-13T14:51:46.929Z,11.67
2019-03-13T14:55:16.229Z,11.47
2019-03-13T14:58:13.093Z,16.10
2019-03-13T15:01:19.845Z,14.50
2019-03-13T15:08:09.553Z,13.03
2019-03-13T15:11:00.204Z,12.33
2019-03-13T15:14:24.801Z,12.47
2019-03-13T15:17:43.290Z,14.67
2019-03-13T15:20:47.392Z,16.03
2019-03-13T15:23:26.710Z,15.70
2019-03-13T15:26:32.190Z,12.97
2019-03-13T15:29:22.424Z,15.70
2019-03-13T15:32:09.020Z,12.40
2019-03-13T15:38:27.701Z,13.23
2019-03-13T15:41:29.688Z,14.97
2019-03-13T15:44:38.876Z,18.73
2019-03-13T15:48:12.929Z,15.60
2019-03-13T15:50:23.533Z,13.73
2019-03-13T15:53:38.702Z,16.03
2019-03-13T15:56:53.851Z,20.20
2019-03-13T15:59:51.100Z,14.50
2019-03-13T16:02:30.370Z,16.30
2019-03-13T16:05:24.618Z,18.73
2019-03-13T16:08:13.366Z,18.40
2019-03-13T16:11:28.712Z,17.50
2019-03-13T16:14:17.818Z,20.20
2019-03-13T16:17:10.211Z,16.27
2019-03-13T16:19:56.714Z,19.83
2019-03-13T16:22:43.812Z,22.53
2019-03-13T16:25:29.137Z,17.47
2019-03-13T16:28:37.627Z,15.13
2019-03-13T16:31:26.441Z,20.73
2019-03-13T16:34:19.651Z,20.07
2019-03-13T16:37:29.591Z,20.87
2019-03-13T16:40:16.162Z,18.53
2019-03-13T16:43:17.767Z,18.80
2019-03-13T16:46:16.996Z,18.43
2019-03-13T16:49:20.684Z,19.77
2019-03-13T16:52:15.827Z,17.27
2019-03-13T16:55:19.073Z,24.47
2019-03-13T16:57:54.910Z,18.80
2019-03-13T17:01:10.504Z,16.30
2019-03-13T17:04:03.127Z,21.30
2019-03-13T17:10:39.047Z,22.60
2019-03-13T17:13:13.216Z,24.83
2019-03-13T17:19:24.154Z,18.50
2019-03-13T17:22:28.896Z,24.27
2019-03-13T17:25:19.083Z,21.93
2019-03-13T17:28:05.315Z,22.03
2019-03-13T17:30:59.330Z,22.00
2019-03-13T17:33:44.228Z,22.00
2019-03-13T17:36:45.097Z,27.77
2019-03-13T17:39:56.436Z,26.67
2019-03-13T17:46:13.290Z,22.23
2019-03-13T17:49:00.150Z,16.37
2019-03-13T17:52:17.940Z,20.27
2019-03-13T17:55:04.333Z,19.93
2019-03-13T17:58:04.451Z,23.67
2019-03-13T18:01:01.392Z,15.80
2019-03-13T18:07:24.248Z,18.57
2019-03-13T18:10:42.994Z,18.13
2019-03-13T18:13:42.444Z,14.33
2019-03-13T18:16:45.070Z,20.80
2019-03-13T18:22:51.673Z,17.90
2019-03-13T18:25:41.635Z,20.70
2019-03-13T18:28:11.544Z,23.17
2019-03-13T18:30:41.399Z,19.13
2019-03-13T18:33:11.448Z,19.03
2019-03-13T18:35:41.448Z,19.40
2019-03-13T18:38:12.434Z,19.13
2019-03-13T18:40:42.191Z,23.33
2019-03-13T18:43:12.568Z,23.60
2019-03-13T18:45:42.583Z,19.53
2019-03-13T18:48:12.480Z,22.17
2019-03-13T18:50:42.590Z,20.97
2019-03-13T18:53:12.546Z,20.40
2019-03-13T18:55:43.011Z,18.13
2019-03-13T18:58:14.306Z,20.87
2019-03-13T19:00:44.225Z,21.40
2019-03-13T19:03:14.073Z,22.47
2019-03-13T19:05:44.125Z,19.87
2019-03-13T19:08:14.689Z,21.23
2019-03-13T19:10:44.743Z,20.17
2019-03-13T19:13:14.784Z,16.80
2019-03-13T19:15:45.064Z,19.07
2019-03-13T19:18:15.102Z,21.77
2019-03-13T19:20:44.922Z,22.47
2019-03-13T19:23:14.846Z,19.97
2019-03-13T19:25:44.699Z,19.57
2019-03-13T19:28:14.589Z,15.27
2019-03-13T19:30:44.329Z,19.17
2019-03-13T19:33:14.764Z,19.27
2019-03-13T19:35:44.542Z,17.07
2019-03-13T19:38:14.933Z,18.67
2019-03-13T19:40:44.915Z,19.03
2019-03-13T19:43:16.042Z,15.70
2019-03-13T19:45:45.999Z,17.87
2019-03-13T19:48:15.942Z,20.77
2019-03-13T19:50:47.012Z,17.67
2019-03-13T19:53:17.251Z,19.73
2019-03-13T19:55:46.983Z,18.33
2019-03-13T19:58:16.979Z,20.67
2019-03-13T20:00:47.009Z,19.50
2019-03-13T20:03:16.834Z,19.70
2019-03-13T20:05:46.975Z,18.43
2019-03-13T20:08:17.095Z,17.87
2019-03-13T20:10:46.801Z,18.33
2019-03-13T20:13:16.795Z,16.83
2019-03-13T20:15:47.890Z,15.83
2019-03-13T20:18:17.876Z,16.13
2019-03-13T20:20:47.968Z,18.20
2019-03-13T20:23:17.787Z,19.30
2019-03-13T20:25:47.778Z,24.17
2019-03-13T20:28:17.498Z,17.70
2019-03-13T20:30:47.176Z,14.17
2019-03-13T20:33:17.668Z,17.23
2019-03-13T20:35:47.926Z,18.47
2019-03-13T20:38:19.225Z,20.47
2019-03-13T20:40:49.307Z,17.90
2019-03-13T20:43:19.232Z,21.43
2019-03-13T20:45:49.608Z,17.33
2019-03-13T20:48:19.333Z,18.67
2019-03-13T20:50:49.268Z,16.30
2019-03-13T20:53:20.357Z,19.10
2019-03-13T20:55:50.226Z,21.90
2019-03-13T20:58:20.020Z,20.90
2019-03-13T21:00:51.107Z,20.77
2019-03-13T21:03:20.983Z,20.47
2019-03-13T21:05:50.959Z,22.37
2019-03-13T21:08:20.658Z,20.53
2019-03-13T21:10:50.535Z,19.30
2019-03-13T21:13:20.347Z,19.60
2019-03-13T21:15:50.322Z,17.40
2019-03-13T21:18:20.087Z,21.20
2019-03-13T21:20:49.889Z,20.80
2019-03-13T21:23:19.987Z,18.07
2019-03-13T21:25:49.776Z,21.17
2019-03-13T21:28:19.687Z,20.73
2019-03-13T21:30:49.465Z,20.07
2019-03-13T21:33:19.253Z,19.20
2019-03-13T21:35:49.087Z,26.40
2019-03-13T21:38:18.919Z,21.00
2019-03-13T21:40:48.931Z,20.77
2019-03-13T21:43:19.001Z,19.80
2019-03-13T21:45:49.049Z,19.30
2019-03-13T21:48:19.013Z,17.57
2019-03-13T21:50:50.383Z,22.57
2019-03-13T21:53:20.405Z,21.37
2019-03-13T21:55:50.291Z,17.20
2019-03-13T21:58:20.183Z,16.33
2019-03-13T22:00:50.286Z,15.70
2019-03-13T22:03:28.719Z,17.67
2019-03-13T22:05:51.704Z,15.53
2019-03-13T22:08:21.480Z,16.67
2019-03-13T22:10:51.221Z,16.90
2019-03-13T22:13:21.149Z,20.93
2019-03-13T22:15:51.080Z,21.17
2019-03-13T22:18:20.878Z,21.73
2019-03-13T22:20:50.875Z,19.73
2019-03-13T22:23:20.905Z,20.53
2019-03-13T22:25:50.771Z,16.80
2019-03-13T22:28:20.621Z,23.67
2019-03-13T22:30:50.558Z,17.37
2019-03-13T22:33:20.630Z,19.60
2019-03-13T22:35:50.391Z,18.97
2019-03-13T22:38:20.279Z,17.23
2019-03-13T22:40:49.958Z,18.17
2019-03-13T22:43:19.719Z,17.57
2019-03-13T22:45:49.436Z,16.17
2019-03-13T22:48:19.389Z,18.93
2019-03-13T22:50:49.275Z,19.47
2019-03-13T22:53:19.095Z,20.37
2019-03-13T22:55:48.942Z,16.53
2019-03-13T22:58:18.694Z,18.73
2019-03-13T23:00:57.350Z,20.07
2019-03-13T23:03:28.652Z,18.43
2019-03-13T23:05:59.126Z,17.83
2019-03-13T23:08:31.147Z,19.77
2019-03-13T23:11:00.469Z,20.27
2019-03-13T23:13:30.303Z,16.10
2019-03-13T23:16:00.167Z,18.27
2019-03-13T23:18:30.141Z,17.07
2019-03-13T23:20:59.840Z,15.13
2019-03-13T23:23:29.813Z,18.47
2019-03-13T23:25:59.706Z,17.20
2019-03-13T23:28:29.681Z,16.23
2019-03-13T23:30:59.646Z,19.17
2019-03-13T23:33:29.541Z,16.40
2019-03-13T23:35:59.365Z,16.63
2019-03-13T23:38:30.412Z,18.10
2019-03-13T23:41:00.188Z,20.23
2019-03-13T23:43:30.023Z,22.73
2019-03-13T23:46:00.027Z,18.47
2019-03-13T23:48:29.857Z,19.13
2019-03-13T23:50:59.881Z,19.83
2019-03-13T23:53:29.785Z,19.97
2019-03-13T23:55:59.584Z,16.67
2019-03-13T23:58:29.668Z,16.03
